Terminal Aerodrome Forecast
Issued by NWS

Home | Current Version | Previous Version | Graphics & Text | Print | Product List | Glossary On
Versions: 1 2 3 4 5 6 7 8 9 10 11 12 13 14 15 16
000
FTUS43 KGRB 031100
TAFATW
TAF
KATW 031120Z 0312/0412 20006KT P6SM SCT100 SCT250
     FM031500 21015G24KT P6SM SCT060 BKN200
     FM040000 22007KT P6SM BKN090
      TEMPO 0400/0404 33025G35KT 3SM TSRA BKN030CB
     FM040400 34007KT P6SM VCSH SCT030 BKN090=

USA.gov is the U.S. government's official web portal to all federal, state and local government web resources and services.